createdAt,value
2024-05-09T00:00:42.996Z,9.83
2024-05-09T00:03:11.719Z,9.53
2024-05-09T00:05:45.664Z,10.97
2024-05-09T00:08:13.182Z,10.17
2024-05-09T00:10:41.297Z,9.07
2024-05-09T00:13:10.634Z,8.57
2024-05-09T00:15:38.648Z,9.10
2024-05-09T00:18:07.665Z,9.20
2024-05-09T00:20:39.610Z,9.23
2024-05-09T00:23:13.695Z,8.38
2024-05-09T00:25:43.816Z,8.47
2024-05-09T00:28:12.724Z,9.83
2024-05-09T00:30:40.720Z,7.80
2024-05-09T00:33:09.853Z,9.13
2024-05-09T00:35:38.896Z,6.90
2024-05-09T00:38:06.463Z,8.63
2024-05-09T00:40:40.531Z,11.23
2024-05-09T00:43:14.600Z,8.07
2024-05-09T00:45:43.686Z,8.10
2024-05-09T00:48:15.369Z,7.57
2024-05-09T00:50:46.630Z,8.33
2024-05-09T00:53:15.940Z,7.07
2024-05-09T00:55:45.018Z,8.17
2024-05-09T00:58:16.684Z,8.43
2024-05-09T01:00:44.619Z,6.90
2024-05-09T01:03:13.897Z,6.63
2024-05-09T01:05:43.477Z,7.00
2024-05-09T01:08:11.939Z,8.77
2024-05-09T01:10:42.791Z,7.40
2024-05-09T01:13:12.346Z,7.67
2024-05-09T01:15:39.634Z,6.80
2024-05-09T01:18:14.227Z,7.07
2024-05-09T01:20:44.251Z,7.80
2024-05-09T01:23:15.109Z,6.90
2024-05-09T01:25:44.814Z,6.03
2024-05-09T01:28:12.602Z,7.30
2024-05-09T01:30:39.983Z,6.57
2024-05-09T01:33:09.430Z,14.07
2024-05-09T01:35:39.354Z,6.60
2024-05-09T01:38:07.949Z,9.20
2024-05-09T01:40:38.843Z,7.60
2024-05-09T01:43:09.648Z,7.53
2024-05-09T01:45:38.603Z,8.20
2024-05-09T01:48:06.845Z,10.87
2024-05-09T01:50:39.503Z,7.40
2024-05-09T01:53:11.684Z,9.10
2024-05-09T01:55:39.562Z,7.17
2024-05-09T01:58:07.474Z,7.67
2024-05-09T02:00:40.126Z,6.93
2024-05-09T02:03:16.629Z,10.03
2024-05-09T02:05:50.124Z,6.40
2024-05-09T02:08:20.376Z,8.53
2024-05-09T02:10:50.675Z,7.43
2024-05-09T02:13:18.371Z,7.10
2024-05-09T02:15:45.803Z,7.15
2024-05-09T02:18:13.730Z,7.20
2024-05-09T02:20:42.532Z,7.97
2024-05-09T02:23:10.784Z,7.73
2024-05-09T02:25:38.118Z,6.70
2024-05-09T02:28:05.924Z,7.37
2024-05-09T02:30:40.232Z,7.23
2024-05-09T02:33:14.128Z,7.83
2024-05-09T02:35:43.869Z,7.27
2024-05-09T02:38:12.450Z,10.53
2024-05-09T02:40:40.571Z,9.00
2024-05-09T02:43:10.420Z,8.40
2024-05-09T02:45:39.976Z,8.07
2024-05-09T02:48:10.953Z,9.73
2024-05-09T02:50:40.822Z,11.17
2024-05-09T02:53:09.536Z,9.55
2024-05-09T02:55:41.295Z,12.53
2024-05-09T02:58:10.106Z,9.17
2024-05-09T03:00:40.828Z,12.37
2024-05-09T03:03:13.773Z,8.20
2024-05-09T03:05:44.496Z,9.30
2024-05-09T03:08:12.190Z,10.23
2024-05-09T03:10:39.952Z,11.33
2024-05-09T03:13:14.483Z,10.60
2024-05-09T03:15:43.719Z,9.90
2024-05-09T03:18:11.950Z,7.27
2024-05-09T03:20:40.164Z,11.60
2024-05-09T03:23:09.461Z,8.03
2024-05-09T03:25:38.551Z,9.50
2024-05-09T03:28:06.487Z,8.67
2024-05-09T03:30:40.876Z,7.17
2024-05-09T03:33:12.481Z,9.20
2024-05-09T03:35:40.947Z,8.07
2024-05-09T03:38:08.223Z,8.90
2024-05-09T03:40:35.652Z,9.30
2024-05-09T03:43:02.850Z,8.47
2024-05-09T03:45:29.951Z,8.87
2024-05-09T03:47:57.510Z,9.97
2024-05-09T03:50:30.285Z,7.40
2024-05-09T03:53:02.147Z,10.45
2024-05-09T03:55:29.909Z,8.40
2024-05-09T03:57:58.042Z,11.60
2024-05-09T04:00:31.222Z,6.20
2024-05-09T04:03:07.586Z,11.38
2024-05-09T04:05:38.164Z,8.50
2024-05-09T04:08:06.176Z,6.87
2024-05-09T04:10:34.959Z,9.50
2024-05-09T04:13:03.854Z,7.90
2024-05-09T04:15:32.148Z,7.73
2024-05-09T04:17:59.873Z,7.20
2024-05-09T04:20:36.237Z,9.87
2024-05-09T04:23:08.494Z,6.20
2024-05-09T04:25:36.554Z,7.00
2024-05-09T04:28:04.229Z,7.50
2024-05-09T04:30:37.918Z,7.33
2024-05-09T04:33:11.471Z,9.33
2024-05-09T04:35:44.576Z,6.77
2024-05-09T04:38:14.301Z,5.90
2024-05-09T04:40:42.401Z,6.77
2024-05-09T04:43:16.273Z,7.07
2024-05-09T04:45:43.502Z,9.30
2024-05-09T04:48:11.591Z,7.07
2024-05-09T04:50:39.872Z,8.10
2024-05-09T04:53:11.435Z,9.93
2024-05-09T04:55:40.300Z,12.03
2024-05-09T04:58:14.569Z,7.30
2024-05-09T05:00:42.023Z,12.20
2024-05-09T05:03:14.089Z,6.82
2024-05-09T05:05:45.218Z,8.50
2024-05-09T05:08:15.139Z,14.10
2024-05-09T05:10:43.830Z,10.47
2024-05-09T05:13:23.939Z,13.40
2024-05-09T05:15:56.783Z,10.10
2024-05-09T05:18:29.378Z,13.30
2024-05-09T05:20:58.312Z,20.90
2024-05-09T05:23:25.860Z,17.97
2024-05-09T05:25:54.245Z,18.40
2024-05-09T05:28:22.196Z,20.90
2024-05-09T05:30:49.987Z,26.80
2024-05-09T05:33:23.210Z,31.80
2024-05-09T05:35:50.964Z,28.63
2024-05-09T05:38:21.237Z,26.47
2024-05-09T05:40:49.954Z,30.63
2024-05-09T05:43:19.011Z,31.37
2024-05-09T05:45:46.873Z,35.90
2024-05-09T05:48:18.130Z,40.53
2024-05-09T05:50:47.861Z,47.60
2024-05-09T05:53:15.127Z,45.87
2024-05-09T05:55:42.585Z,48.20
2024-05-09T05:58:11.312Z,48.13
2024-05-09T06:00:40.528Z,53.17
2024-05-09T06:03:10.050Z,50.10
2024-05-09T06:05:44.020Z,51.33
2024-05-09T06:08:12.417Z,45.93
2024-05-09T06:10:41.159Z,46.80
2024-05-09T06:13:13.713Z,49.87
2024-05-09T06:15:41.864Z,46.63
2024-05-09T06:18:10.852Z,45.57
2024-05-09T06:20:40.430Z,48.50
2024-05-09T06:23:09.879Z,48.00
2024-05-09T06:25:37.997Z,44.23
2024-05-09T06:28:05.989Z,46.90
2024-05-09T06:33:05.168Z,55.90
2024-05-09T06:35:33.622Z,57.70
2024-05-09T06:38:01.627Z,54.73
2024-05-09T06:40:37.029Z,53.97
2024-05-09T06:43:20.131Z,48.47
2024-05-09T06:45:54.199Z,49.07
2024-05-09T06:48:22.493Z,52.53
2024-05-09T06:50:50.529Z,52.63
2024-05-09T06:53:21.356Z,50.13
2024-05-09T06:55:48.707Z,55.17
2024-05-09T06:58:16.363Z,48.73
2024-05-09T07:00:43.783Z,49.00
2024-05-09T07:03:15.468Z,44.83
2024-05-09T07:05:46.517Z,45.13
2024-05-09T07:08:14.743Z,48.00
2024-05-09T07:10:42.360Z,48.60
2024-05-09T07:13:10.921Z,42.83
2024-05-09T07:15:38.563Z,44.97
2024-05-09T07:18:16.710Z,33.87
2024-05-09T07:20:45.766Z,40.60
2024-05-09T07:23:13.335Z,38.90
2024-05-09T07:25:41.734Z,44.43
2024-05-09T07:28:27.262Z,37.87
2024-05-09T07:30:54.511Z,39.80
2024-05-09T07:33:23.802Z,32.60
2024-05-09T07:35:52.450Z,34.77
2024-05-09T07:38:19.992Z,30.63
2024-05-09T07:40:47.423Z,21.13
2024-05-09T07:43:15.885Z,28.47
2024-05-09T07:45:51.702Z,25.20
2024-05-09T07:52:39.068Z,28.83
2024-05-09T07:53:47.658Z,24.33
2024-05-09T07:56:19.869Z,17.00
2024-05-09T07:58:50.790Z,14.90
2024-05-09T08:01:18.546Z,16.33
2024-05-09T08:03:46.136Z,16.07
2024-05-09T08:06:13.567Z,11.23
2024-05-09T08:08:40.900Z,9.43
2024-05-09T08:11:08.118Z,9.17
2024-05-09T08:13:35.380Z,12.80
2024-05-09T08:16:02.602Z,12.20
2024-05-09T08:18:29.962Z,9.23
2024-05-09T08:20:58.220Z,8.98
2024-05-09T08:23:25.500Z,9.33
2024-05-09T08:25:55.267Z,12.10
2024-05-09T08:28:22.489Z,10.23
2024-05-09T08:30:50.709Z,9.30
2024-05-09T08:33:18.165Z,8.63
2024-05-09T08:35:45.470Z,10.40
2024-05-09T08:38:12.763Z,13.80
2024-05-09T08:40:40.082Z,7.87
2024-05-09T08:43:11.254Z,10.33
2024-05-09T08:45:44.299Z,7.83
2024-05-09T08:48:15.300Z,8.43
2024-05-09T08:50:45.003Z,7.63
2024-05-09T08:53:14.555Z,8.80
2024-05-09T08:55:43.687Z,6.03
2024-05-09T08:58:20.916Z,8.13
2024-05-09T09:00:49.480Z,6.15
2024-05-09T09:03:25.432Z,6.87
2024-05-09T09:06:12.481Z,6.23
2024-05-09T09:08:40.219Z,12.13
2024-05-09T09:11:07.506Z,7.17
2024-05-09T09:13:34.722Z,7.30
2024-05-09T09:16:03.143Z,6.47
2024-05-09T09:18:31.079Z,9.00
2024-05-09T09:20:58.721Z,4.13
2024-05-09T09:23:30.365Z,4.77
2024-05-09T09:26:01.342Z,4.80
2024-05-09T09:28:29.643Z,4.00
2024-05-09T09:31:04.092Z,3.73
2024-05-09T09:33:31.932Z,7.00
2024-05-09T09:36:01.982Z,4.23
2024-05-09T09:38:32.464Z,8.50
2024-05-09T09:41:01.815Z,5.80
2024-05-09T09:43:29.715Z,4.60
2024-05-09T09:46:00.107Z,5.13
2024-05-09T09:48:28.025Z,6.10
2024-05-09T09:50:57.028Z,6.83
2024-05-09T09:53:24.537Z,3.60
2024-05-09T09:55:59.173Z,3.63
2024-05-09T09:58:27.619Z,5.67
2024-05-09T10:00:55.276Z,5.38
2024-05-09T10:03:22.931Z,5.40
2024-05-09T10:05:50.732Z,5.10
2024-05-09T10:08:18.990Z,5.00
2024-05-09T10:10:47.969Z,4.10
2024-05-09T10:13:16.211Z,3.87
2024-05-09T10:15:54.314Z,4.87
2024-05-09T10:18:28.158Z,3.40
2024-05-09T10:20:58.070Z,3.57
2024-05-09T10:23:36.275Z,4.40
2024-05-09T10:26:06.370Z,4.10
2024-05-09T10:28:37.143Z,5.40
2024-05-09T10:31:11.200Z,5.23
2024-05-09T10:33:50.850Z,4.35
2024-05-09T10:36:25.630Z,5.37
2024-05-09T10:38:54.651Z,5.10
2024-05-09T10:41:23.704Z,8.90
2024-05-09T10:43:52.140Z,3.35
2024-05-09T10:46:20.011Z,3.20
2024-05-09T10:48:48.653Z,8.10
2024-05-09T10:51:19.593Z,3.60
2024-05-09T10:53:48.732Z,4.20
2024-05-09T10:56:17.240Z,3.27
2024-05-09T10:58:44.819Z,4.37
2024-05-09T11:01:14.101Z,4.53
2024-05-09T11:03:41.983Z,3.33
2024-05-09T11:06:11.405Z,2.60
2024-05-09T11:08:39.232Z,4.27
2024-05-09T11:11:08.491Z,3.50
2024-05-09T11:13:39.071Z,4.07
2024-05-09T11:16:20.027Z,6.30
2024-05-09T11:18:58.114Z,2.63
2024-05-09T11:21:26.072Z,4.23
2024-05-09T11:23:53.455Z,2.63
2024-05-09T11:26:22.200Z,4.70
2024-05-09T11:28:50.895Z,3.97
2024-05-09T11:31:18.496Z,8.80
2024-05-09T11:33:46.742Z,2.70
2024-05-09T11:36:15.196Z,3.23
2024-05-09T11:38:42.968Z,3.10
2024-05-09T11:41:18.604Z,5.07
2024-05-09T11:43:46.977Z,3.23
2024-05-09T11:46:14.699Z,3.17
2024-05-09T11:48:42.250Z,3.10
2024-05-09T11:51:09.585Z,5.57
2024-05-09T11:53:37.833Z,2.50
2024-05-09T11:56:05.436Z,4.00
2024-05-09T11:58:34.756Z,6.50
2024-05-09T12:01:02.865Z,3.07
2024-05-09T12:03:30.376Z,3.40
2024-05-09T12:05:58.038Z,5.90
2024-05-09T12:08:25.378Z,2.63
2024-05-09T12:10:53.086Z,3.87
2024-05-09T12:13:20.609Z,3.17
2024-05-09T12:15:47.850Z,2.13
2024-05-09T12:18:15.137Z,4.20
2024-05-09T12:20:43.025Z,6.13
2024-05-09T12:23:10.852Z,3.20
2024-05-09T12:25:39.843Z,2.73
2024-05-09T12:28:11.090Z,4.43
2024-05-09T12:30:40.537Z,3.73
2024-05-09T12:33:14.196Z,2.67
2024-05-09T12:35:44.605Z,2.67
2024-05-09T12:38:15.368Z,2.57
2024-05-09T12:40:43.032Z,4.43
2024-05-09T12:43:11.460Z,2.43
2024-05-09T12:45:39.914Z,2.70
2024-05-09T12:48:12.346Z,3.27
2024-05-09T12:50:41.094Z,3.03
2024-05-09T12:53:08.578Z,2.83
2024-05-09T12:55:44.312Z,2.37
2024-05-09T12:58:22.193Z,7.30
2024-05-09T13:00:52.709Z,2.80
2024-05-09T13:03:20.563Z,2.50
2024-05-09T13:05:48.808Z,2.50
2024-05-09T13:08:16.838Z,3.03
2024-05-09T13:10:44.745Z,3.40
2024-05-09T13:13:12.931Z,4.30
2024-05-09T13:15:40.802Z,2.17
2024-05-09T13:18:09.443Z,4.43
2024-05-09T13:20:37.671Z,6.53
2024-05-09T13:23:07.926Z,5.83
2024-05-09T13:25:37.734Z,2.23
2024-05-09T13:28:07.007Z,2.60
2024-05-09T13:30:39.938Z,2.27
2024-05-09T13:33:14.082Z,3.20
2024-05-09T13:35:47.204Z,1.50
2024-05-09T13:38:19.176Z,2.50
2024-05-09T13:40:47.483Z,1.97
2024-05-09T13:43:15.484Z,3.83
2024-05-09T13:45:43.214Z,2.53
2024-05-09T13:48:11.391Z,4.50
2024-05-09T13:50:39.507Z,1.67
2024-05-09T13:53:08.373Z,2.00
2024-05-09T13:55:40.800Z,7.83
2024-05-09T13:58:09.422Z,1.90
2024-05-09T14:00:45.947Z,3.55
2024-05-09T14:03:21.174Z,3.63
2024-05-09T14:05:51.233Z,5.50
2024-05-09T14:08:22.505Z,2.23
2024-05-09T14:10:50.834Z,1.97
2024-05-09T14:13:18.619Z,2.33
2024-05-09T14:15:47.117Z,4.83
2024-05-09T14:18:14.974Z,1.60
2024-05-09T14:20:43.117Z,2.40
2024-05-09T14:23:10.858Z,3.57
2024-05-09T14:25:42.351Z,3.87
2024-05-09T14:28:11.568Z,2.00
2024-05-09T14:30:39.840Z,2.30
2024-05-09T14:33:08.711Z,2.42
2024-05-09T14:35:38.608Z,3.67
2024-05-09T14:38:08.399Z,2.40
2024-05-09T14:40:42.000Z,2.40
2024-05-09T14:43:15.879Z,2.87
2024-05-09T14:45:44.267Z,3.10
2024-05-09T14:48:16.080Z,3.50
2024-05-09T14:50:43.785Z,2.80
2024-05-09T14:53:13.183Z,2.57
2024-05-09T14:55:43.012Z,5.60
2024-05-09T14:58:12.067Z,5.33
2024-05-09T15:00:46.279Z,5.10
2024-05-09T15:03:21.796Z,1.80
2024-05-09T15:05:50.333Z,3.00
2024-05-09T15:08:19.184Z,5.60
2024-05-09T15:10:47.199Z,3.50
2024-05-09T15:13:16.743Z,2.43
2024-05-09T15:15:44.951Z,2.33
2024-05-09T15:18:13.655Z,3.60
2024-05-09T15:20:41.537Z,2.37
2024-05-09T15:23:08.952Z,4.10
2024-05-09T15:25:37.082Z,2.17
2024-05-09T15:28:07.825Z,2.57
2024-05-09T15:30:36.143Z,1.90
2024-05-09T15:33:04.612Z,2.97
2024-05-09T15:35:33.423Z,3.27
2024-05-09T15:38:03.217Z,5.27
2024-05-09T15:40:37.832Z,2.78
2024-05-09T15:43:09.772Z,1.83
2024-05-09T15:45:39.090Z,4.03
2024-05-09T15:48:08.611Z,2.67
2024-05-09T15:50:40.000Z,4.87
2024-05-09T15:53:11.932Z,3.77
2024-05-09T15:55:40.076Z,2.40
2024-05-09T15:58:07.908Z,3.80
2024-05-09T16:00:39.786Z,2.80
2024-05-09T16:03:11.308Z,3.13
2024-05-09T16:05:40.747Z,4.27
2024-05-09T16:08:08.761Z,2.50
2024-05-09T16:10:43.185Z,2.57
2024-05-09T16:13:11.884Z,3.27
2024-05-09T16:15:39.343Z,2.60
2024-05-09T16:18:07.397Z,2.67
2024-05-09T16:20:39.974Z,1.97
2024-05-09T16:23:10.195Z,4.40
2024-05-09T16:25:37.925Z,4.13
2024-05-09T16:28:09.138Z,3.03
2024-05-09T16:30:39.785Z,2.60
2024-05-09T16:33:08.159Z,2.03
2024-05-09T16:35:36.216Z,7.00
2024-05-09T16:38:04.397Z,4.83
2024-05-09T16:40:38.356Z,4.10
2024-05-09T16:43:12.839Z,1.90
2024-05-09T16:45:45.935Z,1.63
2024-05-09T16:48:14.540Z,1.93
2024-05-09T16:50:41.896Z,2.95
2024-05-09T16:53:09.215Z,1.87
2024-05-09T16:55:36.845Z,1.67
2024-05-09T16:58:05.125Z,4.40
2024-05-09T17:00:40.302Z,7.37
2024-05-09T17:03:13.754Z,3.55
2024-05-09T17:05:42.989Z,2.40
2024-05-09T17:08:10.501Z,1.73
2024-05-09T17:10:37.855Z,4.57
2024-05-09T17:13:07.175Z,1.70
2024-05-09T17:15:37.236Z,3.63
2024-05-09T17:18:07.067Z,2.33
2024-05-09T17:20:36.921Z,2.40
2024-05-09T17:23:14.024Z,2.70
2024-05-09T17:25:42.211Z,3.47
2024-05-09T17:28:10.006Z,3.03
2024-05-09T17:30:39.839Z,7.30
2024-05-09T17:33:10.117Z,1.50
2024-05-09T17:35:38.760Z,2.13
2024-05-09T17:38:07.118Z,2.43
2024-05-09T17:40:37.152Z,2.17
2024-05-09T17:43:10.561Z,1.53
2024-05-09T17:45:40.948Z,3.63
2024-05-09T17:48:10.773Z,2.80
2024-05-09T17:50:39.346Z,2.00
2024-05-09T17:53:07.075Z,4.23
2024-05-09T17:55:35.481Z,3.43
2024-05-09T17:58:05.100Z,5.73
2024-05-09T18:00:39.040Z,2.80
2024-05-09T18:03:13.581Z,3.73
2024-05-09T18:05:43.162Z,1.63
2024-05-09T18:08:11.723Z,3.50
2024-05-09T18:10:41.362Z,2.27
2024-05-09T18:13:09.715Z,7.40
2024-05-09T18:15:38.304Z,2.20
2024-05-09T18:18:07.442Z,2.00
2024-05-09T18:20:42.758Z,3.20
2024-05-09T18:23:16.370Z,2.60
2024-05-09T18:25:45.690Z,4.93
2024-05-09T18:28:13.434Z,2.93
2024-05-09T18:30:41.218Z,2.70
2024-05-09T18:33:11.407Z,2.90
2024-05-09T18:35:40.981Z,2.90
2024-05-09T18:38:09.392Z,2.17
2024-05-09T18:40:38.496Z,2.17
2024-05-09T18:43:08.639Z,5.40
2024-05-09T18:45:38.373Z,2.80
2024-05-09T18:48:08.379Z,2.73
2024-05-09T18:50:39.632Z,3.60
2024-05-09T18:53:12.899Z,3.40
2024-05-09T18:55:42.484Z,3.73
2024-05-09T18:58:09.870Z,5.40
2024-05-09T19:00:40.025Z,7.30
2024-05-09T19:03:12.786Z,3.00
2024-05-09T19:05:43.690Z,4.07
2024-05-09T19:08:12.397Z,5.23
2024-05-09T19:10:40.435Z,5.77
2024-05-09T19:13:13.033Z,2.90
2024-05-09T19:15:42.690Z,3.33
2024-05-09T19:18:14.465Z,3.40
2024-05-09T19:20:42.758Z,5.40
2024-05-09T19:23:11.651Z,4.40
2024-05-09T19:25:39.470Z,4.30
2024-05-09T19:28:07.105Z,2.40
2024-05-09T19:30:39.989Z,4.27
2024-05-09T19:33:12.995Z,3.40
2024-05-09T19:35:44.234Z,2.43
2024-05-09T19:38:12.263Z,3.07
2024-05-09T19:40:39.518Z,5.53
2024-05-09T19:43:07.182Z,5.27
2024-05-09T19:45:35.765Z,2.70
2024-05-09T19:48:05.148Z,3.03
2024-05-09T19:50:40.958Z,3.60
2024-05-09T19:53:12.546Z,2.60
2024-05-09T19:55:40.889Z,5.90
2024-05-09T19:58:09.946Z,3.30
2024-05-09T20:00:41.933Z,4.50
2024-05-09T20:03:12.966Z,2.13
2024-05-09T20:05:42.630Z,3.08
2024-05-09T20:08:10.277Z,5.03
2024-05-09T20:10:38.113Z,6.75
2024-05-09T20:13:07.112Z,3.10
2024-05-09T20:15:37.124Z,4.63
2024-05-09T20:18:05.348Z,2.60
2024-05-09T20:20:39.107Z,3.20
2024-05-09T20:23:10.268Z,3.37
2024-05-09T20:25:37.729Z,5.37
2024-05-09T20:28:06.399Z,3.00
2024-05-09T20:30:35.496Z,6.33
2024-05-09T20:33:05.310Z,3.53
2024-05-09T20:35:34.191Z,3.73
2024-05-09T20:38:02.520Z,3.00
2024-05-09T20:40:35.146Z,4.00
2024-05-09T20:43:07.105Z,4.80
2024-05-09T20:45:35.140Z,3.30
2024-05-09T20:48:02.864Z,4.10
2024-05-09T20:50:37.510Z,5.87
2024-05-09T20:53:12.595Z,3.27
2024-05-09T20:55:41.207Z,5.50
2024-05-09T20:58:09.917Z,5.67
2024-05-09T21:00:41.132Z,8.87
2024-05-09T21:03:12.932Z,8.13
2024-05-09T21:05:41.250Z,6.13
2024-05-09T21:08:09.111Z,4.33
2024-05-09T21:10:37.422Z,7.80
2024-05-09T21:13:06.645Z,4.47
2024-05-09T21:15:34.907Z,5.25
2024-05-09T21:18:02.694Z,5.63
2024-05-09T21:20:32.930Z,4.57
2024-05-09T21:23:02.153Z,5.00
2024-05-09T21:25:29.964Z,4.33
2024-05-09T21:27:57.528Z,4.97
2024-05-09T21:30:36.992Z,4.10
2024-05-09T21:33:10.084Z,5.37
2024-05-09T21:35:38.781Z,5.57
2024-05-09T21:38:07.220Z,4.30
2024-05-09T21:40:36.160Z,7.60
2024-05-09T21:43:07.167Z,4.93
2024-05-09T21:45:35.300Z,7.27
2024-05-09T21:48:07.421Z,7.63
2024-05-09T21:50:40.305Z,5.00
2024-05-09T21:53:11.026Z,4.87
2024-05-09T21:55:38.279Z,6.22
2024-05-09T21:58:05.766Z,5.53
2024-05-09T22:00:37.659Z,5.43
2024-05-09T22:03:11.343Z,5.90
2024-05-09T22:05:42.367Z,5.53
2024-05-09T22:08:10.886Z,5.73
2024-05-09T22:10:38.328Z,6.40
2024-05-09T22:13:06.824Z,6.00
2024-05-09T22:15:40.111Z,5.20
2024-05-09T22:18:09.876Z,5.67
2024-05-09T22:20:44.662Z,6.50
2024-05-09T22:23:14.226Z,5.50
2024-05-09T22:25:42.419Z,5.53
2024-05-09T22:28:10.040Z,4.87
2024-05-09T22:30:39.691Z,4.33
2024-05-09T22:33:11.962Z,5.20
2024-05-09T22:35:41.109Z,4.70
2024-05-09T22:38:09.071Z,6.17
2024-05-09T22:40:46.141Z,5.32
2024-05-09T22:43:24.633Z,4.53
2024-05-09T22:45:56.797Z,7.63
2024-05-09T22:48:25.727Z,5.97
2024-05-09T22:50:54.617Z,6.30
2024-05-09T22:53:25.440Z,4.18
2024-05-09T22:55:53.082Z,4.20
2024-05-09T22:58:20.899Z,4.60
2024-05-09T23:00:48.378Z,3.65
2024-05-09T23:03:16.659Z,4.70
2024-05-09T23:05:45.003Z,5.40
2024-05-09T23:08:12.181Z,4.67
2024-05-09T23:10:39.513Z,4.87
2024-05-09T23:13:07.964Z,6.22
2024-05-09T23:15:38.647Z,3.40
2024-05-09T23:18:07.064Z,3.80
2024-05-09T23:20:38.430Z,3.85
2024-05-09T23:23:08.512Z,3.80
2024-05-09T23:25:37.678Z,5.20
2024-05-09T23:28:06.139Z,3.83
2024-05-09T23:30:38.430Z,5.00
2024-05-09T23:33:10.465Z,4.50
2024-05-09T23:35:38.895Z,5.63
2024-05-09T23:38:06.178Z,5.10
2024-05-09T23:40:39.399Z,6.18
2024-05-09T23:43:12.763Z,3.93
2024-05-09T23:45:41.332Z,5.43
2024-05-09T23:48:09.715Z,5.87
2024-05-09T23:50:39.075Z,6.27
2024-05-09T23:53:08.959Z,4.20
2024-05-09T23:55:37.571Z,4.63
2024-05-09T23:58:05.756Z,5.03
